ZBF weather

Bathurst Airport
Bathurst, New Brunswick, Canada

Public forecast

Using degrees Celsius for public forecast. Weather courtesy of forecast.io.

Current aviation weather report (METAR) for Bathurst Airport

Retrieved 2019/12/11 19:00 UTC (5 minutes ago):

CZBF 111900Z AUTO 24010KT 9SM CLR M08/M16 A3016 RMK SLP218

Aviation forecast (TAF) for Bathurst Airport

Retrieved 2019/12/11 20:00 UTC (0 seconds ago):

TAF CZBF 111938Z 1120/1204 25008KT P6SM SCT240 BECMG 1200/1202 VRB03KT RMK FCST BASED ON AUTO OBS NXT FCST BY 120200Z